createdAt,value
2022-10-30T00:00:43.375Z,100258.84
2022-10-30T00:03:13.562Z,100254.75
2022-10-30T00:05:43.463Z,100251.97
2022-10-30T00:08:14.391Z,100239.03
2022-10-30T00:10:42.914Z,100247.22
2022-10-30T00:13:11.843Z,100243.75
2022-10-30T00:15:40.067Z,100248.06
2022-10-30T00:18:08.076Z,100239.63
2022-10-30T00:20:37.541Z,100242.97
2022-10-30T00:23:05.503Z,100236.94
2022-10-30T00:25:36.073Z,100232.44
2022-10-30T00:28:04.707Z,100228.00
2022-10-30T00:30:32.794Z,100235.00
2022-10-30T00:33:01.422Z,100223.75
2022-10-30T00:35:29.815Z,100220.28
2022-10-30T00:37:58.272Z,100216.00
2022-10-30T00:40:26.894Z,100223.03
2022-10-30T00:42:56.341Z,100216.38
2022-10-30T00:45:24.375Z,100206.50
2022-10-30T00:47:55.849Z,100208.59
2022-10-30T00:53:04.744Z,100208.75
2022-10-30T00:55:35.660Z,100215.72
2022-10-30T00:58:08.329Z,100218.63
2022-10-30T01:00:38.253Z,100207.47
2022-10-30T01:03:07.186Z,100209.22
2022-10-30T01:05:36.065Z,100215.25
2022-10-30T01:08:04.201Z,100205.09
2022-10-30T01:10:32.479Z,100210.97
2022-10-30T01:13:01.599Z,100200.00
2022-10-30T01:15:35.864Z,100196.03
2022-10-30T01:18:26.277Z,100200.00
2022-10-30T01:21:13.209Z,100193.34
2022-10-30T01:23:53.278Z,100202.88
2022-10-30T01:26:33.659Z,100197.47
2022-10-30T01:29:13.878Z,100189.38
2022-10-30T01:31:57.249Z,100182.84
2022-10-30T01:34:34.815Z,100190.78
2022-10-30T01:37:07.300Z,100192.22
2022-10-30T01:39:38.524Z,100188.88
2022-10-30T01:42:28.092Z,100187.47
2022-10-30T01:44:56.113Z,100186.97
2022-10-30T01:47:38.944Z,100182.56
2022-10-30T01:50:18.044Z,100175.69
2022-10-30T01:52:57.103Z,100177.47
2022-10-30T01:55:37.211Z,100172.38
2022-10-30T01:58:12.978Z,100167.13
2022-10-30T02:00:43.526Z,100168.06
2022-10-30T02:03:13.459Z,100165.72
2022-10-30T02:05:48.422Z,100161.09
2022-10-30T02:08:16.509Z,100159.34
2022-10-30T02:10:47.107Z,100149.34
2022-10-30T02:13:15.633Z,100151.41
2022-10-30T02:15:45.378Z,100145.38
2022-10-30T02:18:14.788Z,100149.81
2022-10-30T02:20:44.139Z,100146.66
2022-10-30T02:23:16.843Z,100151.88
2022-10-30T02:25:44.861Z,100152.69
2022-10-30T02:28:12.995Z,100145.84
2022-10-30T02:30:44.171Z,100144.09
2022-10-30T02:33:12.822Z,100139.66
2022-10-30T02:35:40.887Z,100139.31
2022-10-30T02:38:10.387Z,100141.53
2022-10-30T02:40:38.419Z,100140.13
2022-10-30T02:43:06.417Z,100142.53
2022-10-30T02:45:34.583Z,100144.25
2022-10-30T02:48:03.038Z,100144.41
2022-10-30T02:50:31.522Z,100140.41
2022-10-30T02:53:00.830Z,100144.41
2022-10-30T02:55:30.769Z,100138.69
2022-10-30T02:57:58.774Z,100151.69
2022-10-30T03:00:26.821Z,100139.94
2022-10-30T03:02:56.978Z,100145.03
2022-10-30T03:05:25.839Z,100136.13
2022-10-30T03:07:56.178Z,100150.56
2022-10-30T03:10:24.568Z,100146.13
2022-10-30T03:12:53.979Z,100142.75
2022-10-30T03:15:22.325Z,100135.28
2022-10-30T03:17:52.516Z,100127.38
2022-10-30T03:20:20.826Z,100136.72
2022-10-30T03:22:48.824Z,100131.31
2022-10-30T03:25:17.673Z,100140.22
2022-10-30T03:27:45.707Z,100147.50
2022-10-30T03:30:15.248Z,100152.75
2022-10-30T03:32:43.466Z,100140.88
2022-10-30T03:35:11.451Z,100152.91
2022-10-30T03:37:39.545Z,100145.13
2022-10-30T03:40:08.831Z,100147.78
2022-10-30T03:42:43.483Z,100144.91
2022-10-30T03:45:12.047Z,100149.66
2022-10-30T03:47:42.488Z,100151.94
2022-10-30T03:50:10.855Z,100146.84
2022-10-30T03:52:39.191Z,100153.47
2022-10-30T03:55:08.294Z,100158.72
2022-10-30T03:57:38.364Z,100157.16
2022-10-30T04:00:10.399Z,100155.25
2022-10-30T04:02:38.341Z,100163.63
2022-10-30T04:05:08.359Z,100154.91
2022-10-30T04:07:36.403Z,100155.69
2022-10-30T04:10:05.111Z,100155.69
2022-10-30T04:12:33.094Z,100157.44
2022-10-30T04:15:01.099Z,100154.41
2022-10-30T04:17:29.349Z,100158.22
2022-10-30T04:19:57.350Z,100156.94
2022-10-30T04:22:27.266Z,100159.63
2022-10-30T04:24:55.253Z,100155.69
2022-10-30T04:27:23.231Z,100160.00
2022-10-30T04:29:51.279Z,100162.50
2022-10-30T04:32:19.419Z,100155.50
2022-10-30T04:34:47.433Z,100165.00
2022-10-30T04:37:15.525Z,100160.22
2022-10-30T04:39:48.763Z,100161.38
2022-10-30T04:42:16.703Z,100156.41
2022-10-30T04:44:44.654Z,100158.47
2022-10-30T04:47:12.956Z,100158.47
2022-10-30T04:49:40.956Z,100168.56
2022-10-30T04:52:09.586Z,100157.78
2022-10-30T04:54:37.549Z,100166.66
2022-10-30T04:57:07.142Z,100160.38
2022-10-30T04:59:35.172Z,100163.69
2022-10-30T05:02:03.520Z,100167.69
2022-10-30T05:04:31.559Z,100159.09
2022-10-30T05:06:59.593Z,100158.47
2022-10-30T05:09:27.596Z,100172.06
2022-10-30T05:11:59.978Z,100170.78
2022-10-30T05:14:31.343Z,100167.78
2022-10-30T05:16:59.715Z,100160.53
2022-10-30T05:19:27.798Z,100161.66
2022-10-30T05:21:56.808Z,100156.53
2022-10-30T05:24:24.910Z,100162.44
2022-10-30T05:26:52.920Z,100165.28
2022-10-30T05:29:20.900Z,100164.53
2022-10-30T05:31:50.309Z,100163.63
2022-10-30T05:34:18.319Z,100158.78
2022-10-30T05:36:46.857Z,100155.16
2022-10-30T05:39:14.824Z,100174.34
2022-10-30T05:41:42.840Z,100175.47
2022-10-30T05:44:10.839Z,100183.41
2022-10-30T05:46:38.858Z,100175.63
2022-10-30T05:49:08.431Z,100179.31
2022-10-30T05:51:39.584Z,100170.88
2022-10-30T05:54:08.925Z,100176.94
2022-10-30T05:56:37.008Z,100178.19
2022-10-30T05:59:04.989Z,100181.88
2022-10-30T06:01:33.043Z,100176.63
2022-10-30T06:04:01.286Z,100181.25
2022-10-30T06:06:30.731Z,100174.28
2022-10-30T06:08:58.963Z,100170.44
2022-10-30T06:11:27.550Z,100168.56
2022-10-30T06:13:55.527Z,100168.72
2022-10-30T06:16:23.564Z,100175.72
2022-10-30T06:18:51.621Z,100171.88
2022-10-30T06:21:19.613Z,100169.78
2022-10-30T06:23:49.362Z,100172.34
2022-10-30T06:26:17.365Z,100175.97
2022-10-30T06:28:45.330Z,100173.28
2022-10-30T06:31:13.402Z,100177.25
2022-10-30T06:33:41.899Z,100173.22
2022-10-30T06:36:10.032Z,100171.84
2022-10-30T06:38:38.050Z,100165.59
2022-10-30T06:41:07.614Z,100163.50
2022-10-30T06:43:35.926Z,100161.09
2022-10-30T06:46:04.139Z,100158.69
2022-10-30T06:48:32.228Z,100158.34
2022-10-30T06:51:03.018Z,100160.19
2022-10-30T06:53:31.302Z,100155.66
2022-10-30T06:56:01.327Z,100154.81
2022-10-30T06:58:31.382Z,100152.53
2022-10-30T07:01:01.342Z,100158.06
2022-10-30T07:03:29.337Z,100154.75
2022-10-30T07:05:57.443Z,100158.63
2022-10-30T07:08:25.850Z,100163.66
2022-10-30T07:10:53.946Z,100161.19
2022-10-30T07:13:22.069Z,100156.00
2022-10-30T07:15:51.846Z,100146.31
2022-10-30T07:18:20.054Z,100147.81
2022-10-30T07:20:48.203Z,100151.47
2022-10-30T07:23:16.214Z,100158.69
2022-10-30T07:25:44.182Z,100148.41
2022-10-30T07:28:12.252Z,100139.69
2022-10-30T07:30:40.383Z,100129.50
2022-10-30T07:33:11.749Z,100130.84
2022-10-30T07:35:39.827Z,100129.22
2022-10-30T07:38:09.419Z,100134.13
2022-10-30T07:40:37.563Z,100126.44
2022-10-30T07:43:06.491Z,100125.94
2022-10-30T07:45:34.766Z,100120.19
2022-10-30T07:48:03.072Z,100112.41
2022-10-30T07:50:33.897Z,100113.75
2022-10-30T07:53:02.173Z,100109.63
2022-10-30T07:55:30.260Z,100104.28
2022-10-30T07:57:58.626Z,100111.66
2022-10-30T08:00:27.588Z,100096.91
2022-10-30T08:02:58.960Z,100104.06
2022-10-30T08:05:29.986Z,100095.09
2022-10-30T08:08:00.132Z,100098.44
2022-10-30T08:10:28.605Z,100089.41
2022-10-30T08:12:56.634Z,100087.16
2022-10-30T08:15:25.099Z,100086.25
2022-10-30T08:17:54.126Z,100081.03
2022-10-30T08:20:23.605Z,100074.50
2022-10-30T08:22:53.142Z,100073.44
2022-10-30T08:25:24.680Z,100073.03
2022-10-30T08:27:55.086Z,100069.78
2022-10-30T08:30:23.878Z,100064.03
2022-10-30T08:32:52.131Z,100062.94
2022-10-30T08:35:20.467Z,100058.44
2022-10-30T08:37:48.833Z,100056.22
2022-10-30T08:40:17.106Z,100065.88
2022-10-30T08:42:51.794Z,100062.09
2022-10-30T08:45:20.607Z,100057.22
2022-10-30T08:47:49.031Z,100060.91
2022-10-30T08:50:17.619Z,100056.03
2022-10-30T08:52:48.329Z,100060.50
2022-10-30T08:55:19.018Z,100056.03
2022-10-30T08:57:49.666Z,100052.56
2022-10-30T09:00:18.194Z,100041.38
2022-10-30T09:02:46.499Z,100042.66
2022-10-30T09:05:14.630Z,100031.84
2022-10-30T09:07:42.730Z,100028.53
2022-10-30T09:10:10.927Z,100033.28
2022-10-30T09:12:39.010Z,100032.25
2022-10-30T09:15:09.754Z,100030.81
2022-10-30T09:17:37.787Z,100023.41
2022-10-30T09:20:06.894Z,100022.28
2022-10-30T09:22:34.907Z,100017.72
2022-10-30T09:25:02.921Z,100017.38
2022-10-30T09:27:30.971Z,100014.41
2022-10-30T09:29:59.085Z,100000.78
2022-10-30T09:32:28.842Z,99994.94
2022-10-30T09:34:56.866Z,99989.47
2022-10-30T09:37:25.076Z,99982.03
2022-10-30T09:39:53.351Z,99985.19
2022-10-30T09:42:48.503Z,99988.72
2022-10-30T09:45:43.443Z,99991.47
2022-10-30T09:48:35.407Z,99978.53
2022-10-30T09:51:14.565Z,99971.88
2022-10-30T09:53:55.730Z,99966.78
2022-10-30T09:56:28.689Z,99958.50
2022-10-30T09:59:09.894Z,99954.94
2022-10-30T10:01:49.121Z,99960.44
2022-10-30T10:04:27.393Z,99956.47
2022-10-30T10:07:02.598Z,99948.19
2022-10-30T10:09:34.659Z,99949.34
2022-10-30T10:12:08.038Z,99946.97
2022-10-30T10:14:42.203Z,99950.50
2022-10-30T10:17:14.710Z,99943.69
2022-10-30T10:19:51.287Z,99942.78
2022-10-30T10:22:23.433Z,99927.44
2022-10-30T10:24:52.488Z,99922.22
2022-10-30T10:27:33.236Z,99920.69
2022-10-30T10:30:05.363Z,99915.09
2022-10-30T10:32:52.354Z,99915.06
2022-10-30T10:35:36.802Z,99904.25
2022-10-30T10:38:14.307Z,99903.09
2022-10-30T10:40:55.424Z,99889.59
2022-10-30T10:43:35.998Z,99885.28
2022-10-30T10:46:28.047Z,99882.41
2022-10-30T10:49:12.071Z,99873.34
2022-10-30T10:51:45.262Z,99873.22
2022-10-30T10:54:18.244Z,99875.13
2022-10-30T10:56:50.727Z,99867.88
2022-10-30T10:59:22.488Z,99863.25
2022-10-30T11:01:57.148Z,99862.13
2022-10-30T11:04:32.691Z,99855.13
2022-10-30T11:07:13.062Z,99848.34
2022-10-30T11:09:42.527Z,99852.91
2022-10-30T11:12:10.712Z,99843.00
2022-10-30T11:14:39.133Z,99845.22
2022-10-30T11:17:17.686Z,99843.56
2022-10-30T11:19:47.939Z,99833.97
2022-10-30T11:22:25.480Z,99839.00
2022-10-30T11:24:53.507Z,99827.56
2022-10-30T11:27:30.765Z,99827.56
2022-10-30T11:30:01.690Z,99825.66
2022-10-30T11:32:31.766Z,99818.94
2022-10-30T11:35:04.667Z,99819.75
2022-10-30T11:37:35.729Z,99817.63
2022-10-30T11:40:07.787Z,99807.22
2022-10-30T11:42:36.620Z,99807.56
2022-10-30T11:45:07.186Z,99799.22
2022-10-30T11:47:37.356Z,99797.78
2022-10-30T11:50:07.557Z,99789.66
2022-10-30T11:52:42.513Z,99787.97
2022-10-30T11:55:16.635Z,99784.94
2022-10-30T11:57:47.934Z,99784.25
2022-10-30T12:00:19.866Z,99790.00
2022-10-30T12:02:51.658Z,99783.94
2022-10-30T12:05:37.486Z,99789.94
2022-10-30T12:08:31.218Z,99773.00
2022-10-30T12:11:02.587Z,99769.78
2022-10-30T12:13:38.665Z,99771.44
2022-10-30T12:16:10.882Z,99767.22
2022-10-30T12:18:39.022Z,99763.25
2022-10-30T12:21:07.593Z,99758.50
2022-10-30T12:23:37.128Z,99765.16
2022-10-30T12:26:11.130Z,99765.34
2022-10-30T12:28:40.221Z,99760.34
2022-10-30T12:31:22.262Z,99761.53
2022-10-30T12:33:56.800Z,99759.22
2022-10-30T12:36:28.395Z,99757.22
2022-10-30T12:39:04.909Z,99754.50
2022-10-30T12:41:37.342Z,99752.94
2022-10-30T12:44:13.986Z,99752.09
2022-10-30T12:46:48.898Z,99745.81
2022-10-30T12:49:23.297Z,99749.47
2022-10-30T12:51:56.583Z,99739.81
2022-10-30T12:54:33.517Z,99747.06
2022-10-30T12:57:09.064Z,99746.59
2022-10-30T12:59:46.450Z,99747.91
2022-10-30T13:02:26.097Z,99745.19
2022-10-30T13:04:59.897Z,99733.97
2022-10-30T13:07:32.862Z,99741.78
2022-10-30T13:10:14.531Z,99742.72
2022-10-30T13:12:47.416Z,99731.47
2022-10-30T13:15:22.436Z,99728.44
2022-10-30T13:17:51.853Z,99737.16
2022-10-30T13:20:21.208Z,99734.03
2022-10-30T13:22:56.799Z,99732.13
2022-10-30T13:25:37.362Z,99728.66
2022-10-30T13:28:14.091Z,99735.03
2022-10-30T13:30:48.575Z,99730.81
2022-10-30T13:33:23.306Z,99725.78
2022-10-30T13:35:58.922Z,99724.66
2022-10-30T13:38:41.458Z,99728.19
2022-10-30T13:41:19.813Z,99718.28
2022-10-30T13:43:56.820Z,99723.88
2022-10-30T13:46:50.059Z,99719.63
2022-10-30T13:49:34.037Z,99712.97
2022-10-30T13:52:08.986Z,99713.66
2022-10-30T13:54:40.821Z,99714.28
2022-10-30T13:57:20.731Z,99714.09
2022-10-30T14:00:04.234Z,99719.31
2022-10-30T14:02:50.026Z,99713.94
2022-10-30T14:05:36.357Z,99707.22
2022-10-30T14:08:15.479Z,99705.81
2022-10-30T14:10:49.258Z,99703.19
2022-10-30T14:13:27.091Z,99698.59
2022-10-30T14:16:02.123Z,99695.53
2022-10-30T14:19:00.701Z,99690.16
2022-10-30T14:21:46.182Z,99693.06
2022-10-30T14:24:20.015Z,99691.56
2022-10-30T14:26:54.173Z,99692.47
2022-10-30T14:29:49.610Z,99685.09
2022-10-30T14:32:49.069Z,99676.59
2022-10-30T14:35:41.867Z,99675.91
2022-10-30T14:38:28.581Z,99684.31
2022-10-30T14:41:32.077Z,99684.44
2022-10-30T14:44:36.268Z,99676.72
2022-10-30T14:47:23.943Z,99679.19
2022-10-30T14:49:58.844Z,99675.75
2022-10-30T14:52:38.166Z,99673.09
2022-10-30T14:55:24.644Z,99672.31
2022-10-30T14:57:54.767Z,99674.63
2022-10-30T15:00:31.656Z,99671.13
2022-10-30T15:03:07.280Z,99680.13
2022-10-30T15:05:49.062Z,99678.78
2022-10-30T15:08:32.450Z,99676.41
2022-10-30T15:11:20.766Z,99666.88
2022-10-30T15:13:52.413Z,99674.69
2022-10-30T15:16:23.140Z,99673.88
2022-10-30T15:18:59.660Z,99670.03
2022-10-30T15:21:34.397Z,99668.84
2022-10-30T15:24:04.080Z,99665.72
2022-10-30T15:26:37.226Z,99663.22
2022-10-30T15:29:06.886Z,99661.44
2022-10-30T15:31:34.964Z,99670.66
2022-10-30T15:34:03.152Z,99665.00
2022-10-30T15:36:43.053Z,99659.09
2022-10-30T15:39:13.815Z,99657.09
2022-10-30T15:41:44.997Z,99656.59
2022-10-30T15:46:51.645Z,99660.13
2022-10-30T15:49:28.652Z,99664.28
2022-10-30T15:51:58.704Z,99656.66
2022-10-30T15:54:28.504Z,99660.19
2022-10-30T15:57:36.616Z,99662.88
2022-10-30T15:59:53.519Z,99662.00
2022-10-30T16:02:23.659Z,99662.03
2022-10-30T16:04:52.149Z,99672.75
2022-10-30T16:07:23.978Z,99666.25
2022-10-30T16:09:56.762Z,99676.59
2022-10-30T16:12:30.014Z,99679.78
2022-10-30T16:14:58.948Z,99673.13
2022-10-30T16:17:28.432Z,99672.75
2022-10-30T16:20:02.480Z,99676.72
2022-10-30T16:22:37.609Z,99676.34
2022-10-30T16:25:09.655Z,99686.22
2022-10-30T16:27:45.456Z,99684.34
2022-10-30T16:30:15.716Z,99695.41
2022-10-30T16:32:47.401Z,99697.44
2022-10-30T16:35:16.100Z,99692.75
2022-10-30T16:37:46.194Z,99697.09
2022-10-30T16:40:17.419Z,99702.16
2022-10-30T16:42:49.709Z,99706.16
2022-10-30T16:45:53.249Z,99707.69
2022-10-30T16:48:28.137Z,99708.94
2022-10-30T16:51:04.573Z,99707.72
2022-10-30T16:53:34.366Z,99709.31
2022-10-30T16:56:02.879Z,99716.44
2022-10-30T16:58:32.523Z,99718.84
2022-10-30T17:01:06.987Z,99722.81
2022-10-30T17:03:39.113Z,99720.53
2022-10-30T17:06:26.139Z,99736.25
2022-10-30T17:09:00.757Z,99740.19
2022-10-30T17:11:42.078Z,99738.63
2022-10-30T17:14:20.920Z,99741.78
2022-10-30T17:16:56.974Z,99737.50
2022-10-30T17:19:49.637Z,99742.22
2022-10-30T17:22:21.585Z,99741.84
2022-10-30T17:24:50.973Z,99749.69
2022-10-30T17:27:46.901Z,99745.75
2022-10-30T17:30:34.780Z,99752.03
2022-10-30T17:33:03.999Z,99745.75
2022-10-30T17:35:32.162Z,99744.97
2022-10-30T17:38:02.941Z,99753.19
2022-10-30T17:40:32.859Z,99754.78
2022-10-30T17:43:00.974Z,99754.41
2022-10-30T17:45:29.102Z,99755.19
2022-10-30T17:47:57.892Z,99750.88
2022-10-30T17:50:26.215Z,99753.19
2022-10-30T17:52:54.305Z,99754.38
2022-10-30T17:55:30.942Z,99750.84
2022-10-30T17:58:00.515Z,99749.69
2022-10-30T18:00:28.594Z,99752.81
2022-10-30T18:02:57.203Z,99758.28
2022-10-30T18:05:30.011Z,99756.31
2022-10-30T18:07:58.040Z,99758.28
2022-10-30T18:10:26.207Z,99753.97
2022-10-30T18:12:54.268Z,99752.78
2022-10-30T18:15:36.765Z,99754.75
2022-10-30T18:18:23.461Z,99754.34
2022-10-30T18:20:51.850Z,99755.53
2022-10-30T18:26:14.930Z,99748.91
2022-10-30T18:28:43.038Z,99752.44
2022-10-30T18:31:13.889Z,99748.13
2022-10-30T18:33:42.362Z,99744.59
2022-10-30T18:36:13.686Z,99746.16
2022-10-30T18:38:41.794Z,99744.19
2022-10-30T18:41:15.386Z,99745.34
2022-10-30T18:43:46.661Z,99743.78
2022-10-30T18:46:17.417Z,99750.78
2022-10-30T18:48:45.850Z,99751.16
2022-10-30T18:51:17.755Z,99755.88
2022-10-30T18:53:51.764Z,99757.41
2022-10-30T18:56:20.619Z,99756.63
2022-10-30T18:58:48.805Z,99754.25
2022-10-30T19:01:19.344Z,99754.59
2022-10-30T19:03:47.948Z,99748.72
2022-10-30T19:06:18.555Z,99754.94
2022-10-30T19:08:47.043Z,99757.25
2022-10-30T19:11:20.201Z,99756.38
2022-10-30T19:13:52.467Z,99753.63
2022-10-30T19:16:24.583Z,99746.13
2022-10-30T19:18:52.748Z,99742.97
2022-10-30T19:21:23.501Z,99756.19
2022-10-30T19:23:51.851Z,99751.81
2022-10-30T19:26:19.875Z,99749.84
2022-10-30T19:28:47.936Z,99751.00
2022-10-30T19:31:18.332Z,99761.50
2022-10-30T19:33:53.047Z,99758.41
2022-10-30T19:36:31.405Z,99760.78
2022-10-30T19:39:04.456Z,99764.63
2022-10-30T19:41:37.108Z,99766.16
2022-10-30T19:44:05.992Z,99772.78
2022-10-30T19:46:34.168Z,99762.63
2022-10-30T19:49:14.447Z,99765.34
2022-10-30T19:51:42.453Z,99761.75
2022-10-30T19:54:10.484Z,99767.19
2022-10-30T19:56:38.577Z,99770.34
2022-10-30T19:59:11.344Z,99768.75
2022-10-30T20:01:41.621Z,99767.97
2022-10-30T20:04:11.695Z,99776.16
2022-10-30T20:06:39.832Z,99770.25
2022-10-30T20:09:11.046Z,99769.03
2022-10-30T20:11:39.062Z,99776.38
2022-10-30T20:14:07.835Z,99772.03
2022-10-30T20:16:36.080Z,99781.31
2022-10-30T20:19:12.047Z,99770.34
2022-10-30T20:21:41.442Z,99775.28
2022-10-30T20:24:10.042Z,99764.72
2022-10-30T20:26:38.453Z,99766.19
2022-10-30T20:29:06.639Z,99773.19
2022-10-30T20:31:34.726Z,99774.34
2022-10-30T20:34:02.931Z,99774.78
2022-10-30T20:36:31.128Z,99770.09
2022-10-30T20:39:00.553Z,99766.94
2022-10-30T20:41:31.111Z,99779.00
2022-10-30T20:43:59.141Z,99776.59
2022-10-30T20:46:27.654Z,99776.06
2022-10-30T20:48:56.556Z,99769.78
2022-10-30T20:51:24.923Z,99766.59
2022-10-30T20:53:53.299Z,99764.66
2022-10-30T20:56:22.701Z,99761.50
2022-10-30T20:58:51.594Z,99768.13
2022-10-30T21:01:19.622Z,99765.72
2022-10-30T21:03:48.067Z,99769.59
2022-10-30T21:06:16.167Z,99769.53
2022-10-30T21:08:44.145Z,99769.47
2022-10-30T21:11:12.348Z,99777.97
2022-10-30T21:13:41.794Z,99772.84
2022-10-30T21:16:11.022Z,99780.19
2022-10-30T21:18:39.062Z,99773.28
2022-10-30T21:21:08.853Z,99774.09
2022-10-30T21:23:36.950Z,99776.00
2022-10-30T21:26:09.852Z,99778.28
2022-10-30T21:28:37.944Z,99778.38
2022-10-30T21:31:09.378Z,99776.34
2022-10-30T21:33:38.701Z,99765.84
2022-10-30T21:36:12.007Z,99779.47
2022-10-30T21:38:43.048Z,99774.44
2022-10-30T21:41:12.297Z,99771.88
2022-10-30T21:43:40.481Z,99773.88
2022-10-30T21:46:12.474Z,99775.47
2022-10-30T21:48:40.696Z,99773.66
2022-10-30T21:51:10.814Z,99782.44
2022-10-30T21:53:39.248Z,99781.19
2022-10-30T21:56:09.171Z,99771.09
2022-10-30T21:58:37.168Z,99780.59
2022-10-30T22:01:06.605Z,99779.00
2022-10-30T22:03:36.114Z,99775.34
2022-10-30T22:06:23.547Z,99768.25
2022-10-30T22:08:54.365Z,99768.69
2022-10-30T22:11:23.865Z,99768.69
2022-10-30T22:13:55.551Z,99759.34
2022-10-30T22:16:24.749Z,99750.38
2022-10-30T22:18:54.246Z,99760.06
2022-10-30T22:21:22.281Z,99759.69
2022-10-30T22:23:50.331Z,99759.75
2022-10-30T22:26:20.267Z,99757.56
2022-10-30T22:28:48.943Z,99758.38
2022-10-30T22:31:18.680Z,99761.81
2022-10-30T22:33:46.941Z,99760.72
2022-10-30T22:36:17.651Z,99759.31
2022-10-30T22:38:46.272Z,99752.72
2022-10-30T22:41:16.095Z,99748.16
2022-10-30T22:43:45.575Z,99750.94
2022-10-30T22:46:14.772Z,99755.19
2022-10-30T22:48:43.193Z,99750.53
2022-10-30T22:51:15.558Z,99750.19
2022-10-30T22:53:47.213Z,99757.31
2022-10-30T22:56:17.809Z,99755.41
2022-10-30T22:58:46.528Z,99742.19
2022-10-30T23:01:16.624Z,99742.16
2022-10-30T23:03:45.498Z,99738.44
2022-10-30T23:06:14.484Z,99743.81
2022-10-30T23:08:42.493Z,99740.28
2022-10-30T23:11:12.331Z,99750.06
2022-10-30T23:13:41.585Z,99742.63
2022-10-30T23:16:14.512Z,99736.84
2022-10-30T23:18:43.903Z,99740.22
2022-10-30T23:21:14.084Z,99742.47
2022-10-30T23:23:43.877Z,99742.00
2022-10-30T23:26:15.706Z,99743.13
2022-10-30T23:28:44.679Z,99755.25
2022-10-30T23:31:19.561Z,99743.13
2022-10-30T23:33:48.674Z,99740.22
2022-10-30T23:36:17.698Z,99748.31
2022-10-30T23:38:45.996Z,99740.94
2022-10-30T23:41:15.601Z,99744.31
2022-10-30T23:43:43.600Z,99744.31
2022-10-30T23:46:11.680Z,99735.41
2022-10-30T23:48:39.744Z,99741.44
2022-10-30T23:51:08.990Z,99752.34
2022-10-30T23:53:37.114Z,99744.88
2022-10-30T23:56:06.260Z,99749.75
2022-10-30T23:58:35.707Z,99750.78
